sensor_id;sensor_type;location;lat;lon;timestamp;temperature;humidity
7000;DHT22;3540;53.242;10.408;2023-10-19T00:00:36;7.80;99.90
7000;DHT22;3540;53.242;10.408;2023-10-19T00:03:05;7.80;99.90
7000;DHT22;3540;53.242;10.408;2023-10-19T00:05:34;7.80;99.90
7000;DHT22;3540;53.242;10.408;2023-10-19T00:08:01;7.80;99.90
7000;DHT22;3540;53.242;10.408;2023-10-19T00:10:40;7.80;99.90
7000;DHT22;3540;53.242;10.408;2023-10-19T00:13:09;7.80;99.90
7000;DHT22;3540;53.242;10.408;2023-10-19T00:15:40;7.80;99.90
7000;DHT22;3540;53.242;10.408;2023-10-19T00:18:12;7.80;99.90
7000;DHT22;3540;53.242;10.408;2023-10-19T00:20:41;7.80;99.90
7000;DHT22;3540;53.242;10.408;2023-10-19T00:23:07;7.80;99.90
7000;DHT22;3540;53.242;10.408;2023-10-19T00:25:35;7.80;99.90
7000;DHT22;3540;53.242;10.408;2023-10-19T00:28:01;7.80;99.90
7000;DHT22;3540;53.242;10.408;2023-10-19T00:30:30;7.80;99.90
7000;DHT22;3540;53.242;10.408;2023-10-19T00:32:57;7.80;99.90
7000;DHT22;3540;53.242;10.408;2023-10-19T00:35:29;7.80;99.90
7000;DHT22;3540;53.242;10.408;2023-10-19T00:38:02;7.80;99.90
7000;DHT22;3540;53.242;10.408;2023-10-19T00:40:56;7.90;99.90
7000;DHT22;3540;53.242;10.408;2023-10-19T00:43:33;7.90;99.90
7000;DHT22;3540;53.242;10.408;2023-10-19T00:46:03;7.90;99.90
7000;DHT22;3540;53.242;10.408;2023-10-19T00:48:34;7.90;99.90
7000;DHT22;3540;53.242;10.408;2023-10-19T00:51:01;7.90;99.90
7000;DHT22;3540;53.242;10.408;2023-10-19T00:53:48;7.80;99.90
7000;DHT22;3540;53.242;10.408;2023-10-19T00:56:15;7.90;99.90
7000;DHT22;3540;53.242;10.408;2023-10-19T00:58:43;7.80;99.90
7000;DHT22;3540;53.242;10.408;2023-10-19T01:01:14;7.90;99.90
7000;DHT22;3540;53.242;10.408;2023-10-19T01:03:41;7.80;99.90
7000;DHT22;3540;53.242;10.408;2023-10-19T01:06:10;7.80;99.90
7000;DHT22;3540;53.242;10.408;2023-10-19T01:08:37;7.80;99.90
7000;DHT22;3540;53.242;10.408;2023-10-19T01:11:08;7.80;99.90
7000;DHT22;3540;53.242;10.408;2023-10-19T01:13:38;7.80;99.90
7000;DHT22;3540;53.242;10.408;2023-10-19T01:16:04;7.80;99.90
7000;DHT22;3540;53.242;10.408;2023-10-19T01:18:30;7.80;99.90
7000;DHT22;3540;53.242;10.408;2023-10-19T01:20:59;7.80;99.90
7000;DHT22;3540;53.242;10.408;2023-10-19T01:23:30;7.70;99.90
7000;DHT22;3540;53.242;10.408;2023-10-19T01:25:59;7.80;99.90
7000;DHT22;3540;53.242;10.408;2023-10-19T01:31:12;7.80;99.90
7000;DHT22;3540;53.242;10.408;2023-10-19T01:33:59;7.80;99.90
7000;DHT22;3540;53.242;10.408;2023-10-19T01:36:28;7.80;99.90
7000;DHT22;3540;53.242;10.408;2023-10-19T01:38:58;7.80;99.90
7000;DHT22;3540;53.242;10.408;2023-10-19T01:41:27;7.80;99.90
7000;DHT22;3540;53.242;10.408;2023-10-19T01:43:53;7.80;99.90
7000;DHT22;3540;53.242;10.408;2023-10-19T01:46:20;7.80;99.90
7000;DHT22;3540;53.242;10.408;2023-10-19T01:48:51;7.80;99.90
7000;DHT22;3540;53.242;10.408;2023-10-19T01:51:25;7.80;99.90
7000;DHT22;3540;53.242;10.408;2023-10-19T01:53:52;7.90;99.90
7000;DHT22;3540;53.242;10.408;2023-10-19T01:56:21;7.80;99.90
7000;DHT22;3540;53.242;10.408;2023-10-19T01:58:48;7.90;99.90
7000;DHT22;3540;53.242;10.408;2023-10-19T02:01:15;7.90;99.90
7000;DHT22;3540;53.242;10.408;2023-10-19T02:03:44;7.90;99.90
7000;DHT22;3540;53.242;10.408;2023-10-19T02:06:11;7.80;99.90
7000;DHT22;3540;53.242;10.408;2023-10-19T02:08:48;7.90;99.90
7000;DHT22;3540;53.242;10.408;2023-10-19T02:11:16;7.90;99.90
7000;DHT22;3540;53.242;10.408;2023-10-19T02:13:45;7.90;99.90
7000;DHT22;3540;53.242;10.408;2023-10-19T02:16:15;7.90;99.90
7000;DHT22;3540;53.242;10.408;2023-10-19T02:18:44;7.90;99.90
7000;DHT22;3540;53.242;10.408;2023-10-19T02:21:10;7.90;99.90
7000;DHT22;3540;53.242;10.408;2023-10-19T02:23:40;7.90;99.90
7000;DHT22;3540;53.242;10.408;2023-10-19T02:26:08;7.80;99.90
7000;DHT22;3540;53.242;10.408;2023-10-19T02:28:33;7.80;99.90
7000;DHT22;3540;53.242;10.408;2023-10-19T02:31:03;7.80;99.90
7000;DHT22;3540;53.242;10.408;2023-10-19T02:33:37;7.70;99.90
7000;DHT22;3540;53.242;10.408;2023-10-19T02:36:04;7.70;99.90
7000;DHT22;3540;53.242;10.408;2023-10-19T02:38:29;7.70;99.90
7000;DHT22;3540;53.242;10.408;2023-10-19T02:40:55;7.60;99.90
7000;DHT22;3540;53.242;10.408;2023-10-19T02:43:21;7.60;99.90
7000;DHT22;3540;53.242;10.408;2023-10-19T02:45:49;7.60;99.90
7000;DHT22;3540;53.242;10.408;2023-10-19T02:48:16;7.60;99.90
7000;DHT22;3540;53.242;10.408;2023-10-19T02:50:42;7.50;99.90
7000;DHT22;3540;53.242;10.408;2023-10-19T02:53:08;7.50;99.90
7000;DHT22;3540;53.242;10.408;2023-10-19T02:55:38;7.40;99.90
7000;DHT22;3540;53.242;10.408;2023-10-19T02:58:06;7.30;99.90
7000;DHT22;3540;53.242;10.408;2023-10-19T03:00:31;7.30;99.90
7000;DHT22;3540;53.242;10.408;2023-10-19T03:03:00;7.20;99.90
7000;DHT22;3540;53.242;10.408;2023-10-19T03:05:26;7.20;99.90
7000;DHT22;3540;53.242;10.408;2023-10-19T03:07:52;7.10;99.90
7000;DHT22;3540;53.242;10.408;2023-10-19T03:10:18;7.10;99.90
7000;DHT22;3540;53.242;10.408;2023-10-19T03:12:59;7.10;99.90
7000;DHT22;3540;53.242;10.408;2023-10-19T03:15:25;7.00;99.90
7000;DHT22;3540;53.242;10.408;2023-10-19T03:17:52;6.90;99.90
7000;DHT22;3540;53.242;10.408;2023-10-19T03:20:18;6.90;99.90
7000;DHT22;3540;53.242;10.408;2023-10-19T03:22:49;6.90;99.90
7000;DHT22;3540;53.242;10.408;2023-10-19T03:25:15;6.90;99.90
7000;DHT22;3540;53.242;10.408;2023-10-19T03:27:59;6.80;99.90
7000;DHT22;3540;53.242;10.408;2023-10-19T03:30:36;6.80;99.90
7000;DHT22;3540;53.242;10.408;2023-10-19T03:33:06;6.80;99.90
7000;DHT22;3540;53.242;10.408;2023-10-19T03:35:37;6.70;99.90
7000;DHT22;3540;53.242;10.408;2023-10-19T03:38:04;6.70;99.90
7000;DHT22;3540;53.242;10.408;2023-10-19T03:40:43;6.70;99.90
7000;DHT22;3540;53.242;10.408;2023-10-19T03:43:18;6.70;99.90
7000;DHT22;3540;53.242;10.408;2023-10-19T03:45:47;6.70;99.90
7000;DHT22;3540;53.242;10.408;2023-10-19T03:48:20;6.70;99.90
7000;DHT22;3540;53.242;10.408;2023-10-19T03:50:53;6.60;99.90
7000;DHT22;3540;53.242;10.408;2023-10-19T03:53:21;6.60;99.90
7000;DHT22;3540;53.242;10.408;2023-10-19T03:55:47;6.60;99.90
7000;DHT22;3540;53.242;10.408;2023-10-19T03:58:15;6.60;99.90
7000;DHT22;3540;53.242;10.408;2023-10-19T04:00:41;6.60;99.90
7000;DHT22;3540;53.242;10.408;2023-10-19T04:03:07;6.60;99.90
7000;DHT22;3540;53.242;10.408;2023-10-19T04:05:32;6.60;99.90
7000;DHT22;3540;53.242;10.408;2023-10-19T04:08:05;6.60;99.90
7000;DHT22;3540;53.242;10.408;2023-10-19T04:10:38;6.60;99.90
7000;DHT22;3540;53.242;10.408;2023-10-19T04:13:05;6.60;99.90
7000;DHT22;3540;53.242;10.408;2023-10-19T04:15:35;6.60;99.90
7000;DHT22;3540;53.242;10.408;2023-10-19T04:18:05;6.50;99.90
7000;DHT22;3540;53.242;10.408;2023-10-19T04:20:38;6.50;99.90
7000;DHT22;3540;53.242;10.408;2023-10-19T04:23:16;6.50;99.90
7000;DHT22;3540;53.242;10.408;2023-10-19T04:25:41;6.50;99.90
7000;DHT22;3540;53.242;10.408;2023-10-19T04:28:07;6.50;99.90
7000;DHT22;3540;53.242;10.408;2023-10-19T04:30:34;6.50;99.90
7000;DHT22;3540;53.242;10.408;2023-10-19T04:33:02;6.50;99.90
7000;DHT22;3540;53.242;10.408;2023-10-19T04:35:28;6.50;99.90
7000;DHT22;3540;53.242;10.408;2023-10-19T04:37:59;6.40;99.90
7000;DHT22;3540;53.242;10.408;2023-10-19T04:40:26;6.40;99.90
7000;DHT22;3540;53.242;10.408;2023-10-19T04:42:53;6.40;99.90
7000;DHT22;3540;53.242;10.408;2023-10-19T04:45:20;6.50;99.90
7000;DHT22;3540;53.242;10.408;2023-10-19T04:47:45;6.40;99.90
7000;DHT22;3540;53.242;10.408;2023-10-19T04:50:12;6.40;99.90
7000;DHT22;3540;53.242;10.408;2023-10-19T04:52:38;6.40;99.90
7000;DHT22;3540;53.242;10.408;2023-10-19T04:55:05;6.40;99.90
7000;DHT22;3540;53.242;10.408;2023-10-19T04:57:31;6.30;99.90
7000;DHT22;3540;53.242;10.408;2023-10-19T04:59:57;6.30;99.90
7000;DHT22;3540;53.242;10.408;2023-10-19T05:02:23;6.30;99.90
7000;DHT22;3540;53.242;10.408;2023-10-19T05:04:48;6.30;99.90
7000;DHT22;3540;53.242;10.408;2023-10-19T05:07:15;6.30;99.90
7000;DHT22;3540;53.242;10.408;2023-10-19T05:09:43;6.30;99.90
7000;DHT22;3540;53.242;10.408;2023-10-19T05:12:09;6.30;99.90
7000;DHT22;3540;53.242;10.408;2023-10-19T05:14:35;6.20;99.90
7000;DHT22;3540;53.242;10.408;2023-10-19T05:17:02;6.20;99.90
7000;DHT22;3540;53.242;10.408;2023-10-19T05:19:33;6.30;99.90
7000;DHT22;3540;53.242;10.408;2023-10-19T05:22:04;6.20;99.90
7000;DHT22;3540;53.242;10.408;2023-10-19T05:24:29;6.20;99.90
7000;DHT22;3540;53.242;10.408;2023-10-19T05:26:55;6.20;99.90
7000;DHT22;3540;53.242;10.408;2023-10-19T05:29:22;6.20;99.90
7000;DHT22;3540;53.242;10.408;2023-10-19T05:31:50;6.20;99.90
7000;DHT22;3540;53.242;10.408;2023-10-19T05:34:20;6.20;99.90
7000;DHT22;3540;53.242;10.408;2023-10-19T05:36:46;6.20;99.90
7000;DHT22;3540;53.242;10.408;2023-10-19T05:39:14;6.20;99.90
7000;DHT22;3540;53.242;10.408;2023-10-19T05:41:40;6.20;99.90
7000;DHT22;3540;53.242;10.408;2023-10-19T05:44:06;6.20;99.90
7000;DHT22;3540;53.242;10.408;2023-10-19T05:46:31;6.20;99.90
7000;DHT22;3540;53.242;10.408;2023-10-19T05:48:57;6.30;99.90
7000;DHT22;3540;53.242;10.408;2023-10-19T05:51:23;6.30;99.90
7000;DHT22;3540;53.242;10.408;2023-10-19T05:53:49;6.20;99.90
7000;DHT22;3540;53.242;10.408;2023-10-19T05:56:16;6.30;99.90
7000;DHT22;3540;53.242;10.408;2023-10-19T05:58:43;6.30;99.90
7000;DHT22;3540;53.242;10.408;2023-10-19T06:01:08;6.30;99.90
7000;DHT22;3540;53.242;10.408;2023-10-19T06:03:34;6.30;99.90
7000;DHT22;3540;53.242;10.408;2023-10-19T06:06:00;6.30;99.90
7000;DHT22;3540;53.242;10.408;2023-10-19T06:08:26;6.40;99.90
7000;DHT22;3540;53.242;10.408;2023-10-19T06:10:53;6.30;99.90
7000;DHT22;3540;53.242;10.408;2023-10-19T06:13:19;6.30;99.90
7000;DHT22;3540;53.242;10.408;2023-10-19T06:15:44;6.30;99.90
7000;DHT22;3540;53.242;10.408;2023-10-19T06:18:10;6.30;99.90
7000;DHT22;3540;53.242;10.408;2023-10-19T06:20:46;6.30;99.90
7000;DHT22;3540;53.242;10.408;2023-10-19T06:23:12;6.30;99.90
7000;DHT22;3540;53.242;10.408;2023-10-19T06:25:38;6.30;99.90
7000;DHT22;3540;53.242;10.408;2023-10-19T06:28:05;6.30;99.90
7000;DHT22;3540;53.242;10.408;2023-10-19T06:30:32;6.40;99.90
7000;DHT22;3540;53.242;10.408;2023-10-19T06:32:59;6.40;99.90
7000;DHT22;3540;53.242;10.408;2023-10-19T06:35:27;6.40;99.90
7000;DHT22;3540;53.242;10.408;2023-10-19T06:37:53;6.50;99.90
7000;DHT22;3540;53.242;10.408;2023-10-19T06:40:20;6.50;99.90
7000;DHT22;3540;53.242;10.408;2023-10-19T06:42:48;6.50;99.90
7000;DHT22;3540;53.242;10.408;2023-10-19T06:45:16;6.40;99.90
7000;DHT22;3540;53.242;10.408;2023-10-19T06:47:43;6.40;99.90
7000;DHT22;3540;53.242;10.408;2023-10-19T06:50:11;6.50;99.90
7000;DHT22;3540;53.242;10.408;2023-10-19T06:52:40;6.50;99.90
7000;DHT22;3540;53.242;10.408;2023-10-19T06:55:07;6.50;99.90
7000;DHT22;3540;53.242;10.408;2023-10-19T06:57:42;6.50;99.90
7000;DHT22;3540;53.242;10.408;2023-10-19T07:00:12;6.50;99.90
7000;DHT22;3540;53.242;10.408;2023-10-19T07:02:51;6.50;99.90
7000;DHT22;3540;53.242;10.408;2023-10-19T07:05:17;6.50;99.90
7000;DHT22;3540;53.242;10.408;2023-10-19T07:07:55;6.50;99.90
7000;DHT22;3540;53.242;10.408;2023-10-19T07:10:23;6.60;99.90
7000;DHT22;3540;53.242;10.408;2023-10-19T07:12:52;6.60;99.90
7000;DHT22;3540;53.242;10.408;2023-10-19T07:15:19;6.60;99.90
7000;DHT22;3540;53.242;10.408;2023-10-19T07:17:46;6.50;99.90
7000;DHT22;3540;53.242;10.408;2023-10-19T07:20:13;6.50;99.90
7000;DHT22;3540;53.242;10.408;2023-10-19T07:22:59;6.50;99.90
7000;DHT22;3540;53.242;10.408;2023-10-19T07:25:47;6.50;99.90
7000;DHT22;3540;53.242;10.408;2023-10-19T07:28:15;6.60;99.90
7000;DHT22;3540;53.242;10.408;2023-10-19T07:30:42;6.60;99.90
7000;DHT22;3540;53.242;10.408;2023-10-19T07:33:09;6.60;99.90
7000;DHT22;3540;53.242;10.408;2023-10-19T07:35:38;6.60;99.90
7000;DHT22;3540;53.242;10.408;2023-10-19T07:38:05;6.60;99.90
7000;DHT22;3540;53.242;10.408;2023-10-19T07:40:33;6.60;99.90
7000;DHT22;3540;53.242;10.408;2023-10-19T07:42:59;6.60;99.90
7000;DHT22;3540;53.242;10.408;2023-10-19T07:45:25;6.50;99.90
7000;DHT22;3540;53.242;10.408;2023-10-19T07:47:51;6.60;99.90
7000;DHT22;3540;53.242;10.408;2023-10-19T07:50:16;6.60;99.90
7000;DHT22;3540;53.242;10.408;2023-10-19T07:52:52;6.70;99.90
7000;DHT22;3540;53.242;10.408;2023-10-19T07:55:20;6.70;99.90
7000;DHT22;3540;53.242;10.408;2023-10-19T07:57:49;6.60;99.90
7000;DHT22;3540;53.242;10.408;2023-10-19T08:00:16;6.60;99.90
7000;DHT22;3540;53.242;10.408;2023-10-19T08:02:43;6.70;99.90
7000;DHT22;3540;53.242;10.408;2023-10-19T08:05:16;6.70;99.90
7000;DHT22;3540;53.242;10.408;2023-10-19T08:07:44;6.70;99.90
7000;DHT22;3540;53.242;10.408;2023-10-19T08:10:11;6.70;99.90
7000;DHT22;3540;53.242;10.408;2023-10-19T08:12:38;6.70;99.90
7000;DHT22;3540;53.242;10.408;2023-10-19T08:15:07;6.70;99.90
7000;DHT22;3540;53.242;10.408;2023-10-19T08:17:33;6.70;99.90
7000;DHT22;3540;53.242;10.408;2023-10-19T08:19:59;6.70;99.90
7000;DHT22;3540;53.242;10.408;2023-10-19T08:22:28;6.70;99.90
7000;DHT22;3540;53.242;10.408;2023-10-19T08:24:55;6.90;99.90
7000;DHT22;3540;53.242;10.408;2023-10-19T08:27:21;6.80;99.90
7000;DHT22;3540;53.242;10.408;2023-10-19T08:29:49;6.80;99.90
7000;DHT22;3540;53.242;10.408;2023-10-19T08:32:15;6.80;99.90
7000;DHT22;3540;53.242;10.408;2023-10-19T08:34:41;6.80;99.90
7000;DHT22;3540;53.242;10.408;2023-10-19T08:37:07;6.80;99.90
7000;DHT22;3540;53.242;10.408;2023-10-19T08:39:33;6.70;99.90
7000;DHT22;3540;53.242;10.408;2023-10-19T08:42:05;6.70;99.90
7000;DHT22;3540;53.242;10.408;2023-10-19T08:44:32;6.70;99.90
7000;DHT22;3540;53.242;10.408;2023-10-19T08:46:58;6.80;99.90
7000;DHT22;3540;53.242;10.408;2023-10-19T08:49:25;6.80;99.90
7000;DHT22;3540;53.242;10.408;2023-10-19T08:51:54;6.80;99.90
7000;DHT22;3540;53.242;10.408;2023-10-19T08:54:20;6.80;99.90
7000;DHT22;3540;53.242;10.408;2023-10-19T08:56:46;6.80;99.90
7000;DHT22;3540;53.242;10.408;2023-10-19T08:59:13;6.80;99.90
7000;DHT22;3540;53.242;10.408;2023-10-19T09:01:40;6.80;99.90
7000;DHT22;3540;53.242;10.408;2023-10-19T09:04:12;6.80;99.90
7000;DHT22;3540;53.242;10.408;2023-10-19T09:06:44;6.80;99.90
7000;DHT22;3540;53.242;10.408;2023-10-19T09:09:14;6.80;99.90
7000;DHT22;3540;53.242;10.408;2023-10-19T09:11:48;6.70;99.90
7000;DHT22;3540;53.242;10.408;2023-10-19T09:14:15;6.80;99.90
7000;DHT22;3540;53.242;10.408;2023-10-19T09:16:56;6.80;99.90
7000;DHT22;3540;53.242;10.408;2023-10-19T09:22:07;6.80;99.90
7000;DHT22;3540;53.242;10.408;2023-10-19T09:24:42;6.80;99.90
7000;DHT22;3540;53.242;10.408;2023-10-19T09:27:08;6.80;99.90
7000;DHT22;3540;53.242;10.408;2023-10-19T09:29:34;6.80;99.90
7000;DHT22;3540;53.242;10.408;2023-10-19T09:32:00;6.80;99.90
7000;DHT22;3540;53.242;10.408;2023-10-19T09:34:30;6.80;99.90
7000;DHT22;3540;53.242;10.408;2023-10-19T09:37:03;6.80;99.90
7000;DHT22;3540;53.242;10.408;2023-10-19T09:39:32;6.80;99.90
7000;DHT22;3540;53.242;10.408;2023-10-19T09:42:08;6.90;99.90
7000;DHT22;3540;53.242;10.408;2023-10-19T09:44:42;6.80;99.90
7000;DHT22;3540;53.242;10.408;2023-10-19T09:47:11;6.80;99.90
7000;DHT22;3540;53.242;10.408;2023-10-19T09:49:39;6.80;99.90
7000;DHT22;3540;53.242;10.408;2023-10-19T09:52:05;6.80;99.90
7000;DHT22;3540;53.242;10.408;2023-10-19T09:57:21;6.80;99.90
7000;DHT22;3540;53.242;10.408;2023-10-19T09:59:53;6.80;99.90
7000;DHT22;3540;53.242;10.408;2023-10-19T10:02:22;6.80;99.90
7000;DHT22;3540;53.242;10.408;2023-10-19T10:04:48;6.90;99.90
7000;DHT22;3540;53.242;10.408;2023-10-19T10:07:14;6.90;99.90
7000;DHT22;3540;53.242;10.408;2023-10-19T10:09:42;6.90;99.90
7000;DHT22;3540;53.242;10.408;2023-10-19T10:12:22;6.90;99.90
7000;DHT22;3540;53.242;10.408;2023-10-19T10:17:21;6.80;99.90
7000;DHT22;3540;53.242;10.408;2023-10-19T10:19:48;6.90;99.90
7000;DHT22;3540;53.242;10.408;2023-10-19T10:22:14;6.90;99.90
7000;DHT22;3540;53.242;10.408;2023-10-19T10:24:46;7.00;99.90
7000;DHT22;3540;53.242;10.408;2023-10-19T10:27:16;6.90;99.90
7000;DHT22;3540;53.242;10.408;2023-10-19T10:29:57;6.90;99.90
7000;DHT22;3540;53.242;10.408;2023-10-19T10:35:08;7.00;99.90
7000;DHT22;3540;53.242;10.408;2023-10-19T10:37:38;7.00;99.90
7000;DHT22;3540;53.242;10.408;2023-10-19T10:40:06;7.00;99.90
7000;DHT22;3540;53.242;10.408;2023-10-19T10:42:32;6.90;99.90
7000;DHT22;3540;53.242;10.408;2023-10-19T10:44:59;6.90;99.90
7000;DHT22;3540;53.242;10.408;2023-10-19T10:47:28;6.90;99.90
7000;DHT22;3540;53.242;10.408;2023-10-19T10:50:00;6.90;99.90
7000;DHT22;3540;53.242;10.408;2023-10-19T10:52:33;7.00;99.90
7000;DHT22;3540;53.242;10.408;2023-10-19T10:55:13;6.90;99.90
7000;DHT22;3540;53.242;10.408;2023-10-19T10:57:40;6.90;99.90
7000;DHT22;3540;53.242;10.408;2023-10-19T11:00:07;6.90;99.90
7000;DHT22;3540;53.242;10.408;2023-10-19T11:02:36;6.90;99.90
7000;DHT22;3540;53.242;10.408;2023-10-19T11:05:11;7.00;99.90
7000;DHT22;3540;53.242;10.408;2023-10-19T11:07:38;6.90;99.90
7000;DHT22;3540;53.242;10.408;2023-10-19T11:10:04;7.00;99.90
7000;DHT22;3540;53.242;10.408;2023-10-19T11:12:31;7.00;99.90
7000;DHT22;3540;53.242;10.408;2023-10-19T11:14:59;6.90;99.90
7000;DHT22;3540;53.242;10.408;2023-10-19T11:17:25;6.90;99.90
7000;DHT22;3540;53.242;10.408;2023-10-19T11:19:58;6.90;99.90
7000;DHT22;3540;53.242;10.408;2023-10-19T11:22:27;6.90;99.90
7000;DHT22;3540;53.242;10.408;2023-10-19T11:24:53;6.90;99.90
7000;DHT22;3540;53.242;10.408;2023-10-19T11:27:27;6.90;99.90
7000;DHT22;3540;53.242;10.408;2023-10-19T11:29:59;6.90;99.90
7000;DHT22;3540;53.242;10.408;2023-10-19T11:32:38;6.90;99.90
7000;DHT22;3540;53.242;10.408;2023-10-19T11:35:06;6.90;99.90
7000;DHT22;3540;53.242;10.408;2023-10-19T11:37:51;6.80;99.90
7000;DHT22;3540;53.242;10.408;2023-10-19T11:40:24;6.70;99.90
7000;DHT22;3540;53.242;10.408;2023-10-19T11:42:51;6.80;99.90
7000;DHT22;3540;53.242;10.408;2023-10-19T11:45:18;6.90;99.90
7000;DHT22;3540;53.242;10.408;2023-10-19T11:47:44;6.80;99.90
7000;DHT22;3540;53.242;10.408;2023-10-19T11:50:13;6.80;99.90
7000;DHT22;3540;53.242;10.408;2023-10-19T11:52:44;6.90;99.90
7000;DHT22;3540;53.242;10.408;2023-10-19T11:55:11;6.80;99.90
7000;DHT22;3540;53.242;10.408;2023-10-19T11:57:42;6.90;99.90
7000;DHT22;3540;53.242;10.408;2023-10-19T12:00:12;6.90;99.90
7000;DHT22;3540;53.242;10.408;2023-10-19T12:02:47;6.80;99.90
7000;DHT22;3540;53.242;10.408;2023-10-19T12:05:13;6.70;99.90
7000;DHT22;3540;53.242;10.408;2023-10-19T12:07:39;6.80;99.90
7000;DHT22;3540;53.242;10.408;2023-10-19T12:10:09;6.70;99.90
7000;DHT22;3540;53.242;10.408;2023-10-19T12:12:36;6.60;99.90
7000;DHT22;3540;53.242;10.408;2023-10-19T12:15:03;6.70;99.90
7000;DHT22;3540;53.242;10.408;2023-10-19T12:17:34;6.70;99.90
7000;DHT22;3540;53.242;10.408;2023-10-19T12:19:59;6.80;99.90
7000;DHT22;3540;53.242;10.408;2023-10-19T12:22:25;6.70;99.90
7000;DHT22;3540;53.242;10.408;2023-10-19T12:24:56;6.70;99.90
7000;DHT22;3540;53.242;10.408;2023-10-19T12:27:23;6.70;99.90
7000;DHT22;3540;53.242;10.408;2023-10-19T12:29:50;6.60;99.90
7000;DHT22;3540;53.242;10.408;2023-10-19T12:32:17;6.70;99.90
7000;DHT22;3540;53.242;10.408;2023-10-19T12:34:44;6.70;99.90
7000;DHT22;3540;53.242;10.408;2023-10-19T12:37:10;6.70;99.90
7000;DHT22;3540;53.242;10.408;2023-10-19T12:39:38;6.70;99.90
7000;DHT22;3540;53.242;10.408;2023-10-19T12:42:15;6.80;99.90
7000;DHT22;3540;53.242;10.408;2023-10-19T12:44:40;6.80;99.90
7000;DHT22;3540;53.242;10.408;2023-10-19T12:47:10;6.80;99.90
7000;DHT22;3540;53.242;10.408;2023-10-19T12:49:41;6.90;99.90
7000;DHT22;3540;53.242;10.408;2023-10-19T12:52:08;6.80;99.90
7000;DHT22;3540;53.242;10.408;2023-10-19T12:54:34;6.80;99.90
7000;DHT22;3540;53.242;10.408;2023-10-19T12:57:03;6.80;99.90
7000;DHT22;3540;53.242;10.408;2023-10-19T12:59:30;6.80;99.90
7000;DHT22;3540;53.242;10.408;2023-10-19T13:01:56;6.80;99.90
7000;DHT22;3540;53.242;10.408;2023-10-19T13:04:27;6.80;99.90
7000;DHT22;3540;53.242;10.408;2023-10-19T13:06:56;6.80;99.90
7000;DHT22;3540;53.242;10.408;2023-10-19T13:09:24;6.80;99.90
7000;DHT22;3540;53.242;10.408;2023-10-19T13:11:57;6.80;99.90
7000;DHT22;3540;53.242;10.408;2023-10-19T13:14:22;6.80;99.90
7000;DHT22;3540;53.242;10.408;2023-10-19T13:16:48;6.80;99.90
7000;DHT22;3540;53.242;10.408;2023-10-19T13:19:16;6.80;99.90
7000;DHT22;3540;53.242;10.408;2023-10-19T13:21:47;6.80;99.90
7000;DHT22;3540;53.242;10.408;2023-10-19T13:24:14;6.80;99.90
7000;DHT22;3540;53.242;10.408;2023-10-19T13:26:42;6.80;99.90
7000;DHT22;3540;53.242;10.408;2023-10-19T13:29:11;6.80;99.90
7000;DHT22;3540;53.242;10.408;2023-10-19T13:31:37;6.80;99.90
7000;DHT22;3540;53.242;10.408;2023-10-19T13:34:03;6.80;99.90
7000;DHT22;3540;53.242;10.408;2023-10-19T13:36:30;6.80;99.90
7000;DHT22;3540;53.242;10.408;2023-10-19T13:38:55;6.90;99.90
7000;DHT22;3540;53.242;10.408;2023-10-19T13:41:21;6.80;99.90
7000;DHT22;3540;53.242;10.408;2023-10-19T13:43:47;6.80;99.90
7000;DHT22;3540;53.242;10.408;2023-10-19T13:46:14;6.80;99.90
7000;DHT22;3540;53.242;10.408;2023-10-19T13:48:40;6.80;99.90
7000;DHT22;3540;53.242;10.408;2023-10-19T13:51:06;6.80;99.90
7000;DHT22;3540;53.242;10.408;2023-10-19T13:53:41;6.90;99.90
7000;DHT22;3540;53.242;10.408;2023-10-19T13:56:08;6.80;99.90
7000;DHT22;3540;53.242;10.408;2023-10-19T13:58:34;6.80;99.90
7000;DHT22;3540;53.242;10.408;2023-10-19T14:01:00;6.90;99.90
7000;DHT22;3540;53.242;10.408;2023-10-19T14:03:26;6.90;99.90
7000;DHT22;3540;53.242;10.408;2023-10-19T14:05:52;6.90;99.90
7000;DHT22;3540;53.242;10.408;2023-10-19T14:08:21;6.90;99.90
7000;DHT22;3540;53.242;10.408;2023-10-19T14:10:47;6.90;99.90
7000;DHT22;3540;53.242;10.408;2023-10-19T14:13:13;6.90;99.90
7000;DHT22;3540;53.242;10.408;2023-10-19T14:15:42;6.90;99.90
7000;DHT22;3540;53.242;10.408;2023-10-19T14:18:08;6.90;99.90
7000;DHT22;3540;53.242;10.408;2023-10-19T14:20:34;6.80;99.90
7000;DHT22;3540;53.242;10.408;2023-10-19T14:23:00;6.90;99.90
7000;DHT22;3540;53.242;10.408;2023-10-19T14:25:27;6.90;99.90
7000;DHT22;3540;53.242;10.408;2023-10-19T14:27:55;6.90;99.90
7000;DHT22;3540;53.242;10.408;2023-10-19T14:30:32;6.90;99.90
7000;DHT22;3540;53.242;10.408;2023-10-19T14:32:58;6.90;99.90
7000;DHT22;3540;53.242;10.408;2023-10-19T14:35:24;6.90;99.90
7000;DHT22;3540;53.242;10.408;2023-10-19T14:37:55;6.90;99.90
7000;DHT22;3540;53.242;10.408;2023-10-19T14:40:22;6.90;99.90
7000;DHT22;3540;53.242;10.408;2023-10-19T14:42:50;6.90;99.90
7000;DHT22;3540;53.242;10.408;2023-10-19T14:45:19;7.00;99.90
7000;DHT22;3540;53.242;10.408;2023-10-19T14:47:49;6.90;99.90
7000;DHT22;3540;53.242;10.408;2023-10-19T14:50:17;7.00;99.90
7000;DHT22;3540;53.242;10.408;2023-10-19T14:52:45;7.00;99.90
7000;DHT22;3540;53.242;10.408;2023-10-19T14:55:11;7.00;99.90
7000;DHT22;3540;53.242;10.408;2023-10-19T14:57:39;6.90;99.90
7000;DHT22;3540;53.242;10.408;2023-10-19T15:00:07;7.00;99.90
7000;DHT22;3540;53.242;10.408;2023-10-19T15:02:55;6.90;99.90
7000;DHT22;3540;53.242;10.408;2023-10-19T15:05:22;6.90;99.90
7000;DHT22;3540;53.242;10.408;2023-10-19T15:07:50;6.90;99.90
7000;DHT22;3540;53.242;10.408;2023-10-19T15:10:26;6.90;99.90
7000;DHT22;3540;53.242;10.408;2023-10-19T15:12:54;6.90;99.90
7000;DHT22;3540;53.242;10.408;2023-10-19T15:15:21;6.90;99.90
7000;DHT22;3540;53.242;10.408;2023-10-19T15:17:47;6.90;99.90
7000;DHT22;3540;53.242;10.408;2023-10-19T15:20:14;6.90;99.90
7000;DHT22;3540;53.242;10.408;2023-10-19T15:22:41;6.90;99.90
7000;DHT22;3540;53.242;10.408;2023-10-19T15:25:07;6.90;99.90
7000;DHT22;3540;53.242;10.408;2023-10-19T15:27:37;6.90;99.90
7000;DHT22;3540;53.242;10.408;2023-10-19T15:30:03;6.90;99.90
7000;DHT22;3540;53.242;10.408;2023-10-19T15:32:31;6.90;99.90
7000;DHT22;3540;53.242;10.408;2023-10-19T15:34:57;7.00;99.90
7000;DHT22;3540;53.242;10.408;2023-10-19T15:37:23;7.00;99.90
7000;DHT22;3540;53.242;10.408;2023-10-19T15:39:51;7.00;99.90
7000;DHT22;3540;53.242;10.408;2023-10-19T15:42:18;6.90;99.90
7000;DHT22;3540;53.242;10.408;2023-10-19T15:44:44;7.00;99.90
7000;DHT22;3540;53.242;10.408;2023-10-19T15:47:11;7.00;99.90
7000;DHT22;3540;53.242;10.408;2023-10-19T15:49:46;7.00;99.90
7000;DHT22;3540;53.242;10.408;2023-10-19T15:52:14;7.00;99.90
7000;DHT22;3540;53.242;10.408;2023-10-19T15:54:39;7.00;99.90
7000;DHT22;3540;53.242;10.408;2023-10-19T15:57:05;7.00;99.90
7000;DHT22;3540;53.242;10.408;2023-10-19T15:59:31;7.00;99.90
7000;DHT22;3540;53.242;10.408;2023-10-19T16:01:57;7.00;99.90
7000;DHT22;3540;53.242;10.408;2023-10-19T16:04:23;7.00;99.90
7000;DHT22;3540;53.242;10.408;2023-10-19T16:06:49;6.90;99.90
7000;DHT22;3540;53.242;10.408;2023-10-19T16:09:14;7.00;99.90
7000;DHT22;3540;53.242;10.408;2023-10-19T16:11:41;7.00;99.90
7000;DHT22;3540;53.242;10.408;2023-10-19T16:14:07;6.90;99.90
7000;DHT22;3540;53.242;10.408;2023-10-19T16:16:32;6.90;99.90
7000;DHT22;3540;53.242;10.408;2023-10-19T16:18:58;6.80;99.90
7000;DHT22;3540;53.242;10.408;2023-10-19T16:21:24;6.90;99.90
7000;DHT22;3540;53.242;10.408;2023-10-19T16:23:51;6.90;99.90